createdAt,value
2023-02-14T00:02:12.885Z,99.90
2023-02-14T00:04:44.139Z,99.90
2023-02-14T00:07:12.098Z,99.90
2023-02-14T00:09:39.885Z,99.90
2023-02-14T00:12:07.873Z,99.90
2023-02-14T00:14:53.314Z,99.90
2023-02-14T00:17:22.484Z,99.90
2023-02-14T00:19:50.461Z,99.90
2023-02-14T00:22:18.285Z,99.90
2023-02-14T00:24:46.402Z,99.90
2023-02-14T00:27:14.961Z,99.90
2023-02-14T00:29:42.755Z,99.90
2023-02-14T00:32:10.673Z,99.90
2023-02-14T00:34:41.211Z,99.90
2023-02-14T00:37:09.053Z,99.90
2023-02-14T00:39:36.862Z,99.90
2023-02-14T00:42:04.826Z,99.90
2023-02-14T00:44:32.612Z,99.90
2023-02-14T00:47:00.452Z,99.90
2023-02-14T00:49:28.277Z,99.90
2023-02-14T00:51:57.430Z,99.90
2023-02-14T00:54:25.289Z,99.90
2023-02-14T00:56:53.151Z,99.90
2023-02-14T00:59:20.942Z,99.90
2023-02-14T01:01:48.765Z,99.90
2023-02-14T01:04:16.590Z,99.90
2023-02-14T01:06:44.706Z,99.90
2023-02-14T01:09:13.853Z,99.90
2023-02-14T01:11:41.733Z,99.90
2023-02-14T01:14:09.541Z,99.90
2023-02-14T01:16:39.141Z,99.90
2023-02-14T01:19:09.072Z,99.90
2023-02-14T01:21:36.852Z,99.90
2023-02-14T01:24:05.894Z,99.90
2023-02-14T01:26:35.336Z,99.90
2023-02-14T01:29:03.236Z,99.90
2023-02-14T01:31:32.124Z,99.90
2023-02-14T01:34:00.246Z,99.90
2023-02-14T01:36:28.945Z,99.90
2023-02-14T01:38:57.528Z,99.90
2023-02-14T01:41:25.900Z,99.90
2023-02-14T01:43:57.354Z,99.90
2023-02-14T01:46:26.008Z,99.90
2023-02-14T01:48:54.711Z,99.90
2023-02-14T01:51:22.514Z,99.90
2023-02-14T01:53:50.394Z,99.90
2023-02-14T01:56:21.172Z,99.90
2023-02-14T01:58:49.349Z,99.90
2023-02-14T02:01:18.652Z,99.90
2023-02-14T02:03:50.040Z,99.90
2023-02-14T02:06:18.888Z,99.90
2023-02-14T02:08:49.970Z,99.90
2023-02-14T02:11:17.786Z,99.90
2023-02-14T02:13:45.590Z,99.90
2023-02-14T02:16:31.442Z,99.90
2023-02-14T02:19:10.338Z,99.90
2023-02-14T02:21:54.830Z,99.90
2023-02-14T02:24:29.673Z,99.90
2023-02-14T02:27:24.401Z,99.90
2023-02-14T02:30:18.988Z,99.90
2023-02-14T02:33:29.161Z,99.90
2023-02-14T02:36:09.055Z,99.90
2023-02-14T02:39:14.668Z,99.90
2023-02-14T02:45:12.361Z,99.90
2023-02-14T02:51:07.075Z,99.90
2023-02-14T02:53:41.291Z,99.90
2023-02-14T02:56:50.630Z,99.90
2023-02-14T02:59:21.084Z,99.90
2023-02-14T03:01:58.404Z,99.90
2023-02-14T03:04:44.682Z,99.90
2023-02-14T03:10:38.764Z,99.90
2023-02-14T03:13:43.790Z,99.90
2023-02-14T03:16:34.902Z,99.90
2023-02-14T03:19:36.353Z,99.90
2023-02-14T03:22:16.100Z,99.90
2023-02-14T03:24:47.463Z,99.90
2023-02-14T03:30:06.811Z,99.90
2023-02-14T03:33:14.388Z,99.90
2023-02-14T03:35:46.913Z,99.90
2023-02-14T03:38:16.306Z,99.90
2023-02-14T03:40:54.843Z,99.90
2023-02-14T03:43:26.875Z,99.90
2023-02-14T03:46:00.063Z,99.90
2023-02-14T03:48:28.678Z,99.90
2023-02-14T03:50:57.487Z,99.90
2023-02-14T03:53:27.591Z,99.90
2023-02-14T03:55:59.832Z,99.90
2023-02-14T03:58:31.921Z,99.90
2023-02-14T04:01:02.127Z,99.90
2023-02-14T04:03:42.417Z,99.90
2023-02-14T04:06:11.294Z,99.90
2023-02-14T04:08:39.758Z,99.90
2023-02-14T04:11:14.196Z,99.90
2023-02-14T04:17:02.054Z,99.90
2023-02-14T04:19:31.168Z,99.90
2023-02-14T04:22:02.195Z,99.90
2023-02-14T04:24:31.178Z,99.90
2023-02-14T04:27:11.361Z,99.90
2023-02-14T04:29:43.295Z,99.90
2023-02-14T04:32:13.201Z,99.90
2023-02-14T04:34:44.561Z,99.90
2023-02-14T04:37:13.230Z,99.90
2023-02-14T04:39:42.136Z,99.90
2023-02-14T04:42:10.871Z,99.90
2023-02-14T04:44:40.630Z,99.90
2023-02-14T04:47:15.565Z,99.90
2023-02-14T04:49:43.958Z,99.90
2023-02-14T04:52:13.450Z,99.90
2023-02-14T04:55:02.732Z,99.90
2023-02-14T04:57:31.446Z,99.90
2023-02-14T05:00:01.625Z,99.90
2023-02-14T05:03:13.118Z,99.90
2023-02-14T05:05:44.013Z,99.90
2023-02-14T05:08:12.446Z,99.90
2023-02-14T05:10:41.019Z,99.90
2023-02-14T05:13:09.410Z,99.90
2023-02-14T05:15:39.410Z,99.90
2023-02-14T05:18:07.710Z,99.90
2023-02-14T05:20:36.167Z,99.90
2023-02-14T05:23:05.349Z,99.90
2023-02-14T05:25:33.895Z,99.90
2023-02-14T05:28:02.376Z,99.90
2023-02-14T05:30:30.895Z,99.90
2023-02-14T05:33:01.468Z,99.90
2023-02-14T05:38:18.700Z,99.90
2023-02-14T05:40:47.223Z,99.90
2023-02-14T05:43:15.462Z,99.90
2023-02-14T05:45:47.029Z,99.90
2023-02-14T05:48:16.930Z,99.90
2023-02-14T05:50:46.186Z,99.90
2023-02-14T05:53:15.844Z,99.90
2023-02-14T05:59:35.913Z,99.90
2023-02-14T06:06:15.835Z,99.90
2023-02-14T06:08:44.425Z,99.90
2023-02-14T06:11:12.798Z,99.90
2023-02-14T06:13:41.613Z,99.90
2023-02-14T06:16:09.968Z,99.90
2023-02-14T06:18:38.209Z,99.90
2023-02-14T06:21:07.037Z,99.90
2023-02-14T06:23:36.864Z,99.90
2023-02-14T06:26:05.270Z,99.90
2023-02-14T06:28:33.516Z,99.90
2023-02-14T06:31:02.208Z,99.90
2023-02-14T06:33:30.914Z,99.90
2023-02-14T06:36:02.435Z,99.90
2023-02-14T06:38:30.920Z,99.90
2023-02-14T06:41:06.182Z,99.90
2023-02-14T06:43:34.636Z,99.90
2023-02-14T06:46:03.706Z,99.90
2023-02-14T06:48:32.098Z,99.90
2023-02-14T06:51:00.847Z,99.90
2023-02-14T06:53:29.584Z,99.90
2023-02-14T06:55:58.312Z,99.90
2023-02-14T06:58:28.483Z,99.90
2023-02-14T07:00:56.568Z,99.90
2023-02-14T07:03:24.873Z,99.90
2023-02-14T07:05:53.429Z,99.90
2023-02-14T07:08:21.909Z,99.90
2023-02-14T07:10:50.110Z,99.90
2023-02-14T07:13:18.462Z,99.90
2023-02-14T07:15:48.768Z,99.90
2023-02-14T07:18:17.111Z,99.90
2023-02-14T07:20:45.653Z,99.90
2023-02-14T07:23:13.841Z,99.90
2023-02-14T07:25:42.046Z,99.90
2023-02-14T07:28:10.262Z,99.90
2023-02-14T07:30:38.476Z,99.90
2023-02-14T07:33:14.303Z,99.90
2023-02-14T07:35:42.616Z,99.90
2023-02-14T07:38:10.652Z,99.90
2023-02-14T07:40:39.078Z,99.90
2023-02-14T07:43:13.501Z,99.90
2023-02-14T07:45:41.573Z,99.90
2023-02-14T07:48:11.382Z,99.90
2023-02-14T07:50:39.510Z,99.90
2023-02-14T07:53:08.719Z,99.90
2023-02-14T07:55:36.987Z,99.90
2023-02-14T07:58:05.213Z,99.90
2023-02-14T08:00:33.695Z,99.90
2023-02-14T08:03:01.860Z,99.90
2023-02-14T08:05:31.569Z,99.90
2023-02-14T08:07:59.695Z,99.90
2023-02-14T08:10:38.258Z,99.90
2023-02-14T08:13:06.527Z,99.90
2023-02-14T08:16:02.758Z,99.90
2023-02-14T08:18:30.942Z,99.90
2023-02-14T08:21:00.771Z,99.90
2023-02-14T08:24:06.934Z,99.90
2023-02-14T08:26:38.323Z,99.90
2023-02-14T08:29:06.333Z,99.90
2023-02-14T08:31:36.237Z,99.90
2023-02-14T08:34:05.110Z,99.90
2023-02-14T08:36:35.372Z,99.90
2023-02-14T08:39:04.356Z,99.90
2023-02-14T08:42:19.227Z,99.90
2023-02-14T08:44:47.503Z,99.90
2023-02-14T08:47:15.676Z,99.90
2023-02-14T08:52:27.453Z,99.90
2023-02-14T08:54:55.746Z,99.90
2023-02-14T08:57:24.008Z,99.90
2023-02-14T08:59:52.471Z,99.90
2023-02-14T09:02:20.896Z,99.90
2023-02-14T09:04:48.943Z,99.90
2023-02-14T09:07:17.115Z,99.90
2023-02-14T09:09:49.590Z,99.90
2023-02-14T09:12:17.970Z,99.90
2023-02-14T09:14:46.587Z,99.90
2023-02-14T09:17:15.359Z,99.90
2023-02-14T09:19:49.499Z,99.90
2023-02-14T09:22:17.733Z,99.90
2023-02-14T09:24:47.570Z,99.90
2023-02-14T09:27:15.825Z,99.90
2023-02-14T09:29:44.296Z,99.90
2023-02-14T09:32:12.448Z,99.90
2023-02-14T09:34:58.374Z,99.90
2023-02-14T09:37:26.781Z,99.90
2023-02-14T09:39:56.358Z,99.90
2023-02-14T09:42:39.108Z,99.90
2023-02-14T09:45:10.422Z,99.90
2023-02-14T09:47:41.303Z,99.90
2023-02-14T09:50:18.213Z,99.90
2023-02-14T09:53:02.928Z,99.90
2023-02-14T09:59:09.104Z,99.90
2023-02-14T10:01:39.797Z,99.90
2023-02-14T10:07:27.672Z,99.90
2023-02-14T10:09:59.181Z,99.90
2023-02-14T10:12:31.104Z,99.90
2023-02-14T10:15:02.263Z,99.90
2023-02-14T10:17:36.017Z,99.90
2023-02-14T10:20:06.063Z,99.90
2023-02-14T10:22:49.702Z,99.90
2023-02-14T10:25:19.669Z,99.90
2023-02-14T10:27:49.767Z,99.90
2023-02-14T10:30:19.733Z,99.90
2023-02-14T10:32:49.315Z,99.90
2023-02-14T10:35:38.734Z,99.90
2023-02-14T10:38:11.089Z,99.90
2023-02-14T10:40:46.880Z,99.90
2023-02-14T10:43:21.624Z,99.90
2023-02-14T10:45:55.341Z,99.90
2023-02-14T10:48:28.184Z,99.90
2023-02-14T10:50:59.186Z,99.90
2023-02-14T10:53:29.342Z,99.90
2023-02-14T10:55:58.625Z,99.90
2023-02-14T10:58:28.817Z,99.90
2023-02-14T11:01:00.200Z,99.90
2023-02-14T11:03:33.902Z,99.90
2023-02-14T11:06:02.337Z,99.90
2023-02-14T11:08:32.934Z,99.90
2023-02-14T11:11:02.850Z,99.90
2023-02-14T11:13:34.449Z,99.90
2023-02-14T11:16:03.998Z,99.90
2023-02-14T11:18:36.911Z,99.90
2023-02-14T11:21:09.743Z,99.90
2023-02-14T11:23:39.948Z,99.90
2023-02-14T11:26:13.644Z,99.90
2023-02-14T11:28:50.466Z,99.90
2023-02-14T11:31:26.736Z,99.90
2023-02-14T11:33:58.875Z,99.90
2023-02-14T11:36:30.349Z,99.90
2023-02-14T11:39:08.733Z,99.90
2023-02-14T11:41:50.465Z,99.90
2023-02-14T11:44:23.376Z,99.90
2023-02-14T11:46:53.973Z,99.90
2023-02-14T11:49:33.333Z,99.90
2023-02-14T11:52:02.954Z,98.20
2023-02-14T11:54:34.505Z,99.60
2023-02-14T11:57:07.530Z,99.90
2023-02-14T11:59:39.128Z,75.90
2023-02-14T12:02:18.745Z,72.80
2023-02-14T12:04:47.010Z,78.80
2023-02-14T12:07:17.226Z,55.20
2023-02-14T12:09:45.762Z,62.10
2023-02-14T12:12:18.729Z,44.10
2023-02-14T12:14:48.406Z,46.50
2023-02-14T12:17:22.577Z,46.60
2023-02-14T12:19:51.784Z,70.50
2023-02-14T12:22:20.613Z,76.40
2023-02-14T12:24:52.095Z,73.40
2023-02-14T12:27:21.391Z,61.40
2023-02-14T12:29:53.751Z,55.20
2023-02-14T12:32:23.038Z,42.80
2023-02-14T12:34:52.849Z,50.80
2023-02-14T12:37:38.810Z,56.30
2023-02-14T12:40:12.098Z,48.80
2023-02-14T12:42:50.050Z,41.80
2023-02-14T12:45:22.608Z,39.20
2023-02-14T12:47:53.569Z,29.40
2023-02-14T12:50:36.390Z,37.80
2023-02-14T12:53:26.830Z,38.90
2023-02-14T12:55:59.749Z,43.80
2023-02-14T12:58:33.510Z,31.90
2023-02-14T13:01:10.371Z,39.50
2023-02-14T13:04:01.195Z,41.00
2023-02-14T13:06:32.164Z,33.80
2023-02-14T13:09:07.843Z,25.60
2023-02-14T13:11:38.431Z,21.80
2023-02-14T13:14:11.377Z,20.30
2023-02-14T13:16:42.428Z,23.60
2023-02-14T13:19:16.213Z,32.20
2023-02-14T13:21:44.349Z,37.80
2023-02-14T13:24:18.269Z,25.40
2023-02-14T13:26:48.689Z,17.60
2023-02-14T13:29:19.465Z,22.40
2023-02-14T13:31:48.923Z,16.90
2023-02-14T13:34:28.100Z,12.30
2023-02-14T13:36:56.444Z,16.20
2023-02-14T13:39:27.237Z,14.70
2023-02-14T13:41:55.325Z,13.70
2023-02-14T13:44:44.146Z,6.60
2023-02-14T13:47:19.040Z,8.70
2023-02-14T13:49:48.748Z,4.10
2023-02-14T13:52:17.395Z,2.70
2023-02-14T13:54:46.552Z,9.40
2023-02-14T13:57:29.467Z,9.70
2023-02-14T14:00:40.317Z,5.70
2023-02-14T14:03:13.944Z,7.30
2023-02-14T14:05:49.696Z,7.50
2023-02-14T14:08:46.616Z,4.20
2023-02-14T14:12:01.989Z,11.50
2023-02-14T14:14:39.723Z,16.50
2023-02-14T14:17:21.826Z,14.90
2023-02-14T14:19:51.301Z,13.90
2023-02-14T14:22:19.909Z,10.90
2023-02-14T14:24:55.587Z,12.40
2023-02-14T14:27:24.903Z,14.20
2023-02-14T14:29:54.440Z,16.20
2023-02-14T14:32:27.051Z,19.60
2023-02-14T14:34:57.268Z,22.60
2023-02-14T14:37:26.399Z,19.80
2023-02-14T14:39:55.017Z,24.50
2023-02-14T14:42:23.914Z,18.00
2023-02-14T14:44:52.499Z,21.90
2023-02-14T14:47:21.777Z,28.20
2023-02-14T14:49:49.672Z,24.60
2023-02-14T14:52:28.956Z,31.90
2023-02-14T14:54:56.817Z,37.40
2023-02-14T14:57:24.786Z,35.70
2023-02-14T15:00:07.269Z,45.10
2023-02-14T15:02:35.164Z,50.50
2023-02-14T15:05:14.699Z,52.00
2023-02-14T15:07:44.034Z,51.00
2023-02-14T15:10:23.151Z,51.90
2023-02-14T15:13:09.707Z,55.90
2023-02-14T15:15:38.060Z,60.00
2023-02-14T15:18:07.131Z,64.60
2023-02-14T15:20:36.829Z,59.30
2023-02-14T15:23:06.531Z,80.30
2023-02-14T15:25:35.659Z,87.70
2023-02-14T15:28:03.620Z,96.80
2023-02-14T15:30:34.114Z,99.90
2023-02-14T15:33:02.395Z,98.90
2023-02-14T15:35:31.987Z,99.90
2023-02-14T15:38:02.523Z,99.90
2023-02-14T15:40:32.808Z,99.90
2023-02-14T15:43:03.884Z,99.90
2023-02-14T15:45:32.142Z,99.90
2023-02-14T15:48:00.916Z,99.90
2023-02-14T15:50:30.798Z,99.90
2023-02-14T15:53:03.887Z,99.90
2023-02-14T15:55:33.221Z,99.90
2023-02-14T15:58:02.777Z,99.90
2023-02-14T16:00:31.686Z,99.90
2023-02-14T16:03:02.691Z,99.90
2023-02-14T16:05:30.597Z,99.90
2023-02-14T16:07:59.774Z,99.90
2023-02-14T16:10:29.216Z,99.90
2023-02-14T16:13:03.080Z,99.90
2023-02-14T16:15:31.815Z,99.90
2023-02-14T16:18:00.950Z,99.90
2023-02-14T16:20:31.397Z,99.90
2023-02-14T16:23:19.059Z,99.90
2023-02-14T16:25:46.988Z,99.90
2023-02-14T16:28:16.378Z,99.90
2023-02-14T16:30:45.165Z,99.90
2023-02-14T16:33:15.116Z,99.90
2023-02-14T16:35:43.030Z,99.90
2023-02-14T16:38:15.918Z,99.90
2023-02-14T16:40:44.742Z,99.90
2023-02-14T16:43:14.106Z,99.90
2023-02-14T16:45:43.372Z,99.90
2023-02-14T16:48:11.266Z,99.90
2023-02-14T16:50:40.252Z,99.90
2023-02-14T16:53:09.945Z,99.90
2023-02-14T16:55:37.854Z,99.90
2023-02-14T16:58:05.838Z,99.90
2023-02-14T17:00:33.753Z,99.90
2023-02-14T17:03:13.176Z,99.90
2023-02-14T17:05:41.137Z,99.90
2023-02-14T17:08:09.526Z,99.90
2023-02-14T17:10:37.641Z,99.90
2023-02-14T17:13:08.950Z,99.90
2023-02-14T17:15:37.164Z,99.90
2023-02-14T17:18:10.801Z,99.90
2023-02-14T17:20:38.953Z,99.90
2023-02-14T17:23:06.913Z,99.90
2023-02-14T17:28:16.852Z,99.90
2023-02-14T17:34:33.731Z,99.90
2023-02-14T17:37:02.873Z,99.90
2023-02-14T17:39:30.837Z,99.90
2023-02-14T17:41:59.343Z,99.90
2023-02-14T17:44:29.572Z,99.90
2023-02-14T17:46:58.007Z,99.90
2023-02-14T17:49:25.940Z,99.90
2023-02-14T17:51:57.984Z,99.90
2023-02-14T17:54:25.804Z,99.90
2023-02-14T17:56:53.627Z,99.90
2023-02-14T17:59:21.435Z,99.90
2023-02-14T18:01:49.312Z,99.90
2023-02-14T18:04:17.146Z,99.90
2023-02-14T18:06:44.975Z,99.90
2023-02-14T18:09:14.176Z,99.90
2023-02-14T18:11:44.279Z,99.90
2023-02-14T18:14:12.124Z,99.90
2023-02-14T18:16:40.259Z,99.90
2023-02-14T18:19:15.553Z,99.90
2023-02-14T18:21:44.179Z,99.90
2023-02-14T18:24:12.257Z,99.90
2023-02-14T18:26:42.097Z,99.90
2023-02-14T18:29:10.761Z,99.90
2023-02-14T18:31:39.478Z,99.90
2023-02-14T18:34:10.613Z,99.90
2023-02-14T18:36:39.699Z,99.90
2023-02-14T18:39:07.548Z,99.90
2023-02-14T18:41:35.496Z,99.90
2023-02-14T18:44:05.181Z,99.90
2023-02-14T18:46:35.536Z,99.90
2023-02-14T18:49:04.252Z,99.90
2023-02-14T18:51:33.246Z,99.90
2023-02-14T18:54:04.519Z,99.90
2023-02-14T18:56:35.627Z,99.90
2023-02-14T18:59:05.676Z,99.90
2023-02-14T19:01:36.723Z,99.90
2023-02-14T19:04:05.963Z,99.90
2023-02-14T19:06:34.838Z,99.90
2023-02-14T19:09:03.474Z,99.90
2023-02-14T19:11:32.713Z,99.90
2023-02-14T19:14:01.337Z,99.90
2023-02-14T19:16:32.188Z,99.90
2023-02-14T19:19:00.805Z,99.90
2023-02-14T19:21:30.617Z,99.90
2023-02-14T19:23:58.449Z,99.90
2023-02-14T19:26:27.699Z,99.90
2023-02-14T19:28:56.758Z,99.90
2023-02-14T19:31:24.953Z,99.90
2023-02-14T19:33:54.522Z,99.90
2023-02-14T19:36:23.065Z,99.90
2023-02-14T19:38:51.763Z,99.90
2023-02-14T19:41:21.349Z,99.90
2023-02-14T19:43:51.352Z,99.90
2023-02-14T19:46:20.115Z,99.90
2023-02-14T19:48:48.644Z,99.90
2023-02-14T19:51:19.580Z,99.90
2023-02-14T19:53:47.410Z,99.90
2023-02-14T19:56:19.533Z,99.90
2023-02-14T19:58:47.647Z,99.90
2023-02-14T20:01:24.145Z,99.90
2023-02-14T20:03:52.333Z,99.90
2023-02-14T20:06:21.658Z,99.90
2023-02-14T20:08:49.654Z,99.90
2023-02-14T20:11:28.221Z,99.90
2023-02-14T20:13:56.050Z,99.90
2023-02-14T20:16:27.334Z,99.90
2023-02-14T20:18:55.191Z,99.90
2023-02-14T20:21:27.927Z,99.90
2023-02-14T20:23:55.859Z,99.90
2023-02-14T20:26:26.637Z,99.90
2023-02-14T20:28:54.845Z,99.90
2023-02-14T20:31:25.203Z,99.90
2023-02-14T20:33:55.257Z,99.90
2023-02-14T20:36:24.461Z,99.90
2023-02-14T20:38:55.499Z,99.90
2023-02-14T20:41:23.347Z,99.90
2023-02-14T20:43:51.193Z,99.90
2023-02-14T20:46:19.129Z,99.90
2023-02-14T20:48:46.963Z,99.90
2023-02-14T20:51:16.146Z,99.90
2023-02-14T20:53:45.498Z,99.90
2023-02-14T20:56:13.741Z,99.90
2023-02-14T20:58:41.887Z,99.90
2023-02-14T21:01:10.638Z,99.90
2023-02-14T21:03:38.559Z,99.90
2023-02-14T21:06:07.360Z,99.90
2023-02-14T21:08:35.173Z,99.90
2023-02-14T21:11:04.328Z,99.90
2023-02-14T21:13:32.204Z,99.90
2023-02-14T21:16:03.011Z,99.90
2023-02-14T21:18:31.066Z,99.90
2023-02-14T21:21:04.888Z,99.90
2023-02-14T21:23:32.722Z,99.90
2023-02-14T21:26:04.940Z,99.90
2023-02-14T21:28:32.783Z,99.90
2023-02-14T21:31:04.585Z,99.90
2023-02-14T21:33:33.378Z,99.90
2023-02-14T21:36:06.972Z,99.90
2023-02-14T21:38:34.930Z,99.90
2023-02-14T21:41:04.821Z,99.90
2023-02-14T21:43:36.029Z,99.90
2023-02-14T21:46:05.101Z,99.90
2023-02-14T21:48:50.437Z,99.90
2023-02-14T21:51:18.409Z,99.90
2023-02-14T21:53:46.211Z,99.90
2023-02-14T21:56:17.940Z,99.90
2023-02-14T21:58:47.607Z,99.90
2023-02-14T22:01:16.265Z,99.90
2023-02-14T22:03:44.112Z,99.90
2023-02-14T22:06:13.090Z,99.90
2023-02-14T22:08:40.911Z,99.90
2023-02-14T22:11:09.103Z,99.90
2023-02-14T22:13:36.917Z,99.90
2023-02-14T22:16:07.204Z,99.90
2023-02-14T22:18:35.145Z,99.90
2023-02-14T22:21:03.588Z,99.90
2023-02-14T22:23:31.881Z,99.90
2023-02-14T22:26:09.666Z,99.90
2023-02-14T22:28:37.500Z,99.90
2023-02-14T22:31:06.968Z,99.90
2023-02-14T22:33:36.986Z,99.90
2023-02-14T22:36:06.358Z,99.90
2023-02-14T22:38:34.172Z,99.90
2023-02-14T22:41:06.035Z,99.90
2023-02-14T22:43:34.185Z,99.90
2023-02-14T22:46:04.418Z,99.90
2023-02-14T22:48:33.856Z,99.90
2023-02-14T22:51:09.142Z,99.90
2023-02-14T22:53:37.131Z,99.90
2023-02-14T22:56:12.515Z,99.90
2023-02-14T22:58:40.630Z,99.90
2023-02-14T23:01:08.467Z,99.90
2023-02-14T23:03:37.683Z,99.90
2023-02-14T23:06:05.752Z,99.90
2023-02-14T23:08:33.526Z,99.90
2023-02-14T23:11:07.398Z,99.90
2023-02-14T23:13:52.946Z,99.90
2023-02-14T23:16:38.544Z,99.90
2023-02-14T23:19:27.309Z,99.90
2023-02-14T23:21:58.064Z,99.90
2023-02-14T23:24:25.861Z,99.90
2023-02-14T23:26:54.949Z,99.90
2023-02-14T23:29:22.810Z,99.90
2023-02-14T23:31:50.763Z,99.90
2023-02-14T23:34:20.080Z,99.90
2023-02-14T23:36:48.044Z,99.90
2023-02-14T23:39:15.866Z,99.90
2023-02-14T23:41:49.895Z,99.90
2023-02-14T23:44:19.061Z,99.90
2023-02-14T23:46:47.408Z,99.90
2023-02-14T23:49:15.304Z,99.90
2023-02-14T23:51:44.723Z,99.90
2023-02-14T23:54:12.527Z,99.90
2023-02-14T23:56:40.646Z,99.90
2023-02-14T23:59:08.696Z,99.90
